sensor_id;sensor_type;location;lat;lon;timestamp;P1;durP1;ratioP1;P2;durP2;ratioP2
53650;SDS011;39552;45.776;15.892;2023-02-12T00:01:13;51.97;;;37.17;;
53650;SDS011;39552;45.776;15.892;2023-02-12T00:03:42;54.22;;;36.63;;
53650;SDS011;39552;45.776;15.892;2023-02-12T00:06:09;53.35;;;36.65;;
53650;SDS011;39552;45.776;15.892;2023-02-12T00:08:40;54.90;;;37.85;;
53650;SDS011;39552;45.776;15.892;2023-02-12T00:11:09;61.08;;;40.17;;
53650;SDS011;39552;45.776;15.892;2023-02-12T00:13:37;59.95;;;39.75;;
53650;SDS011;39552;45.776;15.892;2023-02-12T00:16:05;61.92;;;39.97;;
53650;SDS011;39552;45.776;15.892;2023-02-12T00:18:33;60.33;;;40.60;;
53650;SDS011;39552;45.776;15.892;2023-02-12T00:21:01;62.95;;;41.15;;
53650;SDS011;39552;45.776;15.892;2023-02-12T00:23:28;57.60;;;39.78;;
53650;SDS011;39552;45.776;15.892;2023-02-12T00:25:55;59.80;;;40.40;;
53650;SDS011;39552;45.776;15.892;2023-02-12T00:28:22;56.53;;;40.40;;
53650;SDS011;39552;45.776;15.892;2023-02-12T00:30:49;57.03;;;39.15;;
53650;SDS011;39552;45.776;15.892;2023-02-12T00:33:16;61.53;;;41.03;;
53650;SDS011;39552;45.776;15.892;2023-02-12T00:35:42;61.10;;;39.72;;
53650;SDS011;39552;45.776;15.892;2023-02-12T00:38:11;58.58;;;39.47;;
53650;SDS011;39552;45.776;15.892;2023-02-12T00:40:37;60.55;;;39.97;;
53650;SDS011;39552;45.776;15.892;2023-02-12T00:43:04;57.92;;;40.28;;
53650;SDS011;39552;45.776;15.892;2023-02-12T00:45:31;56.40;;;39.03;;
53650;SDS011;39552;45.776;15.892;2023-02-12T00:47:58;61.53;;;39.33;;
53650;SDS011;39552;45.776;15.892;2023-02-12T00:50:24;56.00;;;38.97;;
53650;SDS011;39552;45.776;15.892;2023-02-12T00:52:51;57.45;;;39.55;;
53650;SDS011;39552;45.776;15.892;2023-02-12T00:55:19;61.90;;;40.28;;
53650;SDS011;39552;45.776;15.892;2023-02-12T00:57:46;60.50;;;39.58;;
53650;SDS011;39552;45.776;15.892;2023-02-12T01:00:13;57.10;;;38.97;;
53650;SDS011;39552;45.776;15.892;2023-02-12T01:02:41;54.05;;;38.10;;
53650;SDS011;39552;45.776;15.892;2023-02-12T01:05:07;62.45;;;40.42;;
53650;SDS011;39552;45.776;15.892;2023-02-12T01:07:34;63.38;;;40.15;;
53650;SDS011;39552;45.776;15.892;2023-02-12T01:10:01;64.13;;;39.92;;
53650;SDS011;39552;45.776;15.892;2023-02-12T01:12:29;59.17;;;39.20;;
53650;SDS011;39552;45.776;15.892;2023-02-12T01:14:56;55.75;;;38.08;;
53650;SDS011;39552;45.776;15.892;2023-02-12T01:17:23;57.55;;;39.92;;
53650;SDS011;39552;45.776;15.892;2023-02-12T01:19:49;61.90;;;39.42;;
53650;SDS011;39552;45.776;15.892;2023-02-12T01:22:16;56.20;;;38.83;;
53650;SDS011;39552;45.776;15.892;2023-02-12T01:24:43;58.95;;;38.03;;
53650;SDS011;39552;45.776;15.892;2023-02-12T01:27:09;56.17;;;38.22;;
53650;SDS011;39552;45.776;15.892;2023-02-12T01:29:37;58.50;;;39.45;;
53650;SDS011;39552;45.776;15.892;2023-02-12T01:32:04;59.28;;;39.92;;
53650;SDS011;39552;45.776;15.892;2023-02-12T01:34:31;59.65;;;37.78;;
53650;SDS011;39552;45.776;15.892;2023-02-12T01:36:58;58.60;;;38.83;;
53650;SDS011;39552;45.776;15.892;2023-02-12T01:39:24;60.15;;;38.03;;
53650;SDS011;39552;45.776;15.892;2023-02-12T01:41:51;59.95;;;38.50;;
53650;SDS011;39552;45.776;15.892;2023-02-12T01:44:18;57.97;;;39.22;;
53650;SDS011;39552;45.776;15.892;2023-02-12T01:46:48;57.13;;;39.40;;
53650;SDS011;39552;45.776;15.892;2023-02-12T01:49:20;57.75;;;38.35;;
53650;SDS011;39552;45.776;15.892;2023-02-12T01:51:50;52.85;;;36.38;;
53650;SDS011;39552;45.776;15.892;2023-02-12T01:54:19;53.95;;;37.03;;
53650;SDS011;39552;45.776;15.892;2023-02-12T01:56:48;61.53;;;39.35;;
53650;SDS011;39552;45.776;15.892;2023-02-12T01:59:15;59.38;;;39.13;;
53650;SDS011;39552;45.776;15.892;2023-02-12T02:01:43;57.47;;;37.17;;
53650;SDS011;39552;45.776;15.892;2023-02-12T02:04:13;55.45;;;37.88;;
53650;SDS011;39552;45.776;15.892;2023-02-12T02:06:45;54.50;;;36.03;;
53650;SDS011;39552;45.776;15.892;2023-02-12T02:09:16;54.42;;;36.97;;
53650;SDS011;39552;45.776;15.892;2023-02-12T02:11:44;55.72;;;37.67;;
53650;SDS011;39552;45.776;15.892;2023-02-12T02:14:11;56.65;;;37.90;;
53650;SDS011;39552;45.776;15.892;2023-02-12T02:16:37;59.33;;;37.65;;
53650;SDS011;39552;45.776;15.892;2023-02-12T02:19:13;53.58;;;36.38;;
53650;SDS011;39552;45.776;15.892;2023-02-12T02:22:10;50.97;;;35.17;;
53650;SDS011;39552;45.776;15.892;2023-02-12T02:27:50;56.80;;;37.47;;
53650;SDS011;39552;45.776;15.892;2023-02-12T02:30:33;54.25;;;35.85;;
53650;SDS011;39552;45.776;15.892;2023-02-12T02:33:14;55.47;;;36.75;;
53650;SDS011;39552;45.776;15.892;2023-02-12T02:35:52;52.87;;;36.37;;
53650;SDS011;39552;45.776;15.892;2023-02-12T02:38:28;52.90;;;37.45;;
53650;SDS011;39552;45.776;15.892;2023-02-12T02:41:01;56.63;;;36.15;;
53650;SDS011;39552;45.776;15.892;2023-02-12T02:43:32;54.17;;;36.53;;
53650;SDS011;39552;45.776;15.892;2023-02-12T02:46:04;53.80;;;36.72;;
53650;SDS011;39552;45.776;15.892;2023-02-12T02:48:35;54.30;;;36.63;;
53650;SDS011;39552;45.776;15.892;2023-02-12T02:51:05;55.47;;;36.13;;
53650;SDS011;39552;45.776;15.892;2023-02-12T02:53:36;55.83;;;37.20;;
53650;SDS011;39552;45.776;15.892;2023-02-12T02:56:08;54.35;;;36.85;;
53650;SDS011;39552;45.776;15.892;2023-02-12T02:58:40;64.15;;;38.65;;
53650;SDS011;39552;45.776;15.892;2023-02-12T03:01:12;59.78;;;39.90;;
53650;SDS011;39552;45.776;15.892;2023-02-12T03:03:44;61.78;;;38.30;;
53650;SDS011;39552;45.776;15.892;2023-02-12T03:06:18;58.50;;;37.50;;
53650;SDS011;39552;45.776;15.892;2023-02-12T03:08:49;55.60;;;35.88;;
53650;SDS011;39552;45.776;15.892;2023-02-12T03:11:21;55.22;;;36.25;;
53650;SDS011;39552;45.776;15.892;2023-02-12T03:13:51;51.15;;;34.92;;
53650;SDS011;39552;45.776;15.892;2023-02-12T03:16:26;48.90;;;33.63;;
53650;SDS011;39552;45.776;15.892;2023-02-12T03:18:57;53.10;;;33.22;;
53650;SDS011;39552;45.776;15.892;2023-02-12T03:21:31;53.60;;;34.65;;
53650;SDS011;39552;45.776;15.892;2023-02-12T03:24:04;47.13;;;33.47;;
53650;SDS011;39552;45.776;15.892;2023-02-12T03:26:38;48.28;;;32.90;;
53650;SDS011;39552;45.776;15.892;2023-02-12T03:29:09;49.72;;;33.00;;
53650;SDS011;39552;45.776;15.892;2023-02-12T03:31:40;49.20;;;31.98;;
53650;SDS011;39552;45.776;15.892;2023-02-12T03:34:17;50.17;;;32.20;;
53650;SDS011;39552;45.776;15.892;2023-02-12T03:36:50;45.72;;;31.05;;
53650;SDS011;39552;45.776;15.892;2023-02-12T03:39:24;46.03;;;31.27;;
53650;SDS011;39552;45.776;15.892;2023-02-12T03:41:58;48.03;;;31.60;;
53650;SDS011;39552;45.776;15.892;2023-02-12T03:44:33;46.67;;;32.05;;
53650;SDS011;39552;45.776;15.892;2023-02-12T03:47:15;46.33;;;30.60;;
53650;SDS011;39552;45.776;15.892;2023-02-12T03:49:51;48.22;;;33.20;;
53650;SDS011;39552;45.776;15.892;2023-02-12T03:52:24;44.97;;;30.70;;
53650;SDS011;39552;45.776;15.892;2023-02-12T03:54:51;45.47;;;31.48;;
53650;SDS011;39552;45.776;15.892;2023-02-12T03:57:18;44.90;;;31.05;;
53650;SDS011;39552;45.776;15.892;2023-02-12T03:59:46;47.75;;;33.40;;
53650;SDS011;39552;45.776;15.892;2023-02-12T04:02:15;45.50;;;32.28;;
53650;SDS011;39552;45.776;15.892;2023-02-12T04:04:43;49.80;;;32.15;;
53650;SDS011;39552;45.776;15.892;2023-02-12T04:07:12;47.97;;;30.93;;
53650;SDS011;39552;45.776;15.892;2023-02-12T04:09:39;44.17;;;30.63;;
53650;SDS011;39552;45.776;15.892;2023-02-12T04:12:08;45.10;;;30.15;;
53650;SDS011;39552;45.776;15.892;2023-02-12T04:14:54;48.83;;;30.80;;
53650;SDS011;39552;45.776;15.892;2023-02-12T04:17:35;45.45;;;28.60;;
53650;SDS011;39552;45.776;15.892;2023-02-12T04:20:12;43.17;;;28.88;;
53650;SDS011;39552;45.776;15.892;2023-02-12T04:22:49;44.72;;;28.17;;
53650;SDS011;39552;45.776;15.892;2023-02-12T04:25:30;45.55;;;28.35;;
53650;SDS011;39552;45.776;15.892;2023-02-12T04:28:10;39.95;;;28.05;;
53650;SDS011;39552;45.776;15.892;2023-02-12T04:30:43;41.33;;;28.27;;
53650;SDS011;39552;45.776;15.892;2023-02-12T04:33:14;40.38;;;26.52;;
53650;SDS011;39552;45.776;15.892;2023-02-12T04:35:47;40.35;;;26.85;;
53650;SDS011;39552;45.776;15.892;2023-02-12T04:38:18;38.67;;;27.07;;
53650;SDS011;39552;45.776;15.892;2023-02-12T04:40:50;39.03;;;26.42;;
53650;SDS011;39552;45.776;15.892;2023-02-12T04:43:25;37.92;;;26.17;;
53650;SDS011;39552;45.776;15.892;2023-02-12T04:45:52;41.03;;;27.67;;
53650;SDS011;39552;45.776;15.892;2023-02-12T04:48:21;39.72;;;26.42;;
53650;SDS011;39552;45.776;15.892;2023-02-12T04:50:48;37.28;;;26.48;;
53650;SDS011;39552;45.776;15.892;2023-02-12T04:53:15;39.90;;;25.85;;
53650;SDS011;39552;45.776;15.892;2023-02-12T04:55:41;40.13;;;26.92;;
53650;SDS011;39552;45.776;15.892;2023-02-12T04:58:08;40.70;;;27.15;;
53650;SDS011;39552;45.776;15.892;2023-02-12T05:00:35;39.15;;;27.27;;
53650;SDS011;39552;45.776;15.892;2023-02-12T05:03:02;37.33;;;26.45;;
53650;SDS011;39552;45.776;15.892;2023-02-12T05:05:31;42.45;;;27.55;;
53650;SDS011;39552;45.776;15.892;2023-02-12T05:07:57;41.50;;;27.85;;
53650;SDS011;39552;45.776;15.892;2023-02-12T05:10:24;44.35;;;27.70;;
53650;SDS011;39552;45.776;15.892;2023-02-12T05:12:51;39.38;;;26.90;;
53650;SDS011;39552;45.776;15.892;2023-02-12T05:15:18;39.45;;;26.52;;
53650;SDS011;39552;45.776;15.892;2023-02-12T05:17:45;39.60;;;25.60;;
53650;SDS011;39552;45.776;15.892;2023-02-12T05:20:12;39.13;;;26.08;;
53650;SDS011;39552;45.776;15.892;2023-02-12T05:22:40;41.45;;;26.40;;
53650;SDS011;39552;45.776;15.892;2023-02-12T05:25:07;47.70;;;28.23;;
53650;SDS011;39552;45.776;15.892;2023-02-12T05:27:34;39.65;;;27.90;;
53650;SDS011;39552;45.776;15.892;2023-02-12T05:30:00;38.78;;;26.85;;
53650;SDS011;39552;45.776;15.892;2023-02-12T05:32:27;40.15;;;27.50;;
53650;SDS011;39552;45.776;15.892;2023-02-12T05:34:54;39.60;;;28.83;;
53650;SDS011;39552;45.776;15.892;2023-02-12T05:37:20;45.20;;;29.90;;
53650;SDS011;39552;45.776;15.892;2023-02-12T05:39:49;43.83;;;28.58;;
53650;SDS011;39552;45.776;15.892;2023-02-12T05:42:15;46.53;;;30.95;;
53650;SDS011;39552;45.776;15.892;2023-02-12T05:44:42;42.17;;;29.30;;
53650;SDS011;39552;45.776;15.892;2023-02-12T05:47:09;51.17;;;31.33;;
53650;SDS011;39552;45.776;15.892;2023-02-12T05:49:36;51.25;;;34.03;;
53650;SDS011;39552;45.776;15.892;2023-02-12T05:52:02;51.45;;;33.40;;
53650;SDS011;39552;45.776;15.892;2023-02-12T05:54:29;51.75;;;34.03;;
53650;SDS011;39552;45.776;15.892;2023-02-12T05:56:57;58.92;;;37.05;;
53650;SDS011;39552;45.776;15.892;2023-02-12T05:59:24;53.38;;;36.13;;
53650;SDS011;39552;45.776;15.892;2023-02-12T06:01:51;54.55;;;36.45;;
53650;SDS011;39552;45.776;15.892;2023-02-12T06:04:18;55.65;;;36.10;;
53650;SDS011;39552;45.776;15.892;2023-02-12T06:06:46;54.17;;;37.40;;
53650;SDS011;39552;45.776;15.892;2023-02-12T06:09:13;53.92;;;37.05;;
53650;SDS011;39552;45.776;15.892;2023-02-12T06:11:40;54.45;;;36.72;;
53650;SDS011;39552;45.776;15.892;2023-02-12T06:14:10;56.63;;;35.85;;
53650;SDS011;39552;45.776;15.892;2023-02-12T06:16:39;52.40;;;35.50;;
53650;SDS011;39552;45.776;15.892;2023-02-12T06:19:05;51.88;;;34.33;;
53650;SDS011;39552;45.776;15.892;2023-02-12T06:21:32;48.50;;;33.45;;
53650;SDS011;39552;45.776;15.892;2023-02-12T06:26:34;52.08;;;33.35;;
53650;SDS011;39552;45.776;15.892;2023-02-12T06:29:01;50.22;;;32.45;;
53650;SDS011;39552;45.776;15.892;2023-02-12T06:31:30;54.83;;;35.28;;
53650;SDS011;39552;45.776;15.892;2023-02-12T06:33:59;53.10;;;33.92;;
53650;SDS011;39552;45.776;15.892;2023-02-12T06:36:28;47.53;;;33.83;;
53650;SDS011;39552;45.776;15.892;2023-02-12T06:38:55;49.05;;;32.40;;
53650;SDS011;39552;45.776;15.892;2023-02-12T06:41:22;49.33;;;33.13;;
53650;SDS011;39552;45.776;15.892;2023-02-12T06:43:49;49.75;;;32.08;;
53650;SDS011;39552;45.776;15.892;2023-02-12T06:46:15;48.97;;;32.90;;
53650;SDS011;39552;45.776;15.892;2023-02-12T06:48:43;47.75;;;30.23;;
53650;SDS011;39552;45.776;15.892;2023-02-12T06:51:11;49.17;;;31.88;;
53650;SDS011;39552;45.776;15.892;2023-02-12T06:53:39;45.50;;;30.00;;
53650;SDS011;39552;45.776;15.892;2023-02-12T06:56:06;48.72;;;31.35;;
53650;SDS011;39552;45.776;15.892;2023-02-12T06:58:36;50.58;;;31.17;;
53650;SDS011;39552;45.776;15.892;2023-02-12T07:01:06;46.80;;;29.67;;
53650;SDS011;39552;45.776;15.892;2023-02-12T07:03:34;43.50;;;29.33;;
53650;SDS011;39552;45.776;15.892;2023-02-12T07:06:03;45.67;;;30.50;;
53650;SDS011;39552;45.776;15.892;2023-02-12T07:08:30;46.88;;;29.42;;
53650;SDS011;39552;45.776;15.892;2023-02-12T07:10:57;40.63;;;28.95;;
53650;SDS011;39552;45.776;15.892;2023-02-12T07:13:24;42.72;;;28.83;;
53650;SDS011;39552;45.776;15.892;2023-02-12T07:15:50;44.03;;;28.35;;
53650;SDS011;39552;45.776;15.892;2023-02-12T07:18:17;40.72;;;28.00;;
53650;SDS011;39552;45.776;15.892;2023-02-12T07:20:44;43.40;;;27.48;;
53650;SDS011;39552;45.776;15.892;2023-02-12T07:23:12;43.17;;;27.02;;
53650;SDS011;39552;45.776;15.892;2023-02-12T07:25:39;40.30;;;27.30;;
53650;SDS011;39552;45.776;15.892;2023-02-12T07:28:07;43.03;;;28.08;;
53650;SDS011;39552;45.776;15.892;2023-02-12T07:30:33;42.80;;;28.40;;
53650;SDS011;39552;45.776;15.892;2023-02-12T07:33:00;42.10;;;27.75;;
53650;SDS011;39552;45.776;15.892;2023-02-12T07:35:27;41.00;;;28.33;;
53650;SDS011;39552;45.776;15.892;2023-02-12T07:37:53;40.47;;;27.92;;
53650;SDS011;39552;45.776;15.892;2023-02-12T07:40:21;42.10;;;27.65;;
53650;SDS011;39552;45.776;15.892;2023-02-12T07:42:48;43.78;;;27.70;;
53650;SDS011;39552;45.776;15.892;2023-02-12T07:45:19;42.80;;;27.85;;
53650;SDS011;39552;45.776;15.892;2023-02-12T07:47:46;35.60;;;25.88;;
53650;SDS011;39552;45.776;15.892;2023-02-12T07:50:12;39.97;;;27.33;;
53650;SDS011;39552;45.776;15.892;2023-02-12T07:52:39;40.58;;;26.98;;
53650;SDS011;39552;45.776;15.892;2023-02-12T07:55:06;37.05;;;26.38;;
53650;SDS011;39552;45.776;15.892;2023-02-12T07:57:34;38.15;;;26.20;;
53650;SDS011;39552;45.776;15.892;2023-02-12T08:00:03;36.53;;;25.88;;
53650;SDS011;39552;45.776;15.892;2023-02-12T08:02:30;40.60;;;26.13;;
53650;SDS011;39552;45.776;15.892;2023-02-12T08:04:57;36.85;;;25.20;;
53650;SDS011;39552;45.776;15.892;2023-02-12T08:07:24;38.60;;;25.15;;
53650;SDS011;39552;45.776;15.892;2023-02-12T08:09:51;41.72;;;26.23;;
53650;SDS011;39552;45.776;15.892;2023-02-12T08:12:18;38.88;;;26.35;;
53650;SDS011;39552;45.776;15.892;2023-02-12T08:14:46;41.35;;;28.63;;
53650;SDS011;39552;45.776;15.892;2023-02-12T08:17:13;41.97;;;27.80;;
53650;SDS011;39552;45.776;15.892;2023-02-12T08:19:40;41.88;;;27.80;;
53650;SDS011;39552;45.776;15.892;2023-02-12T08:22:06;43.00;;;28.50;;
53650;SDS011;39552;45.776;15.892;2023-02-12T08:24:33;42.20;;;28.40;;
53650;SDS011;39552;45.776;15.892;2023-02-12T08:27:00;40.83;;;30.55;;
53650;SDS011;39552;45.776;15.892;2023-02-12T08:29:27;42.00;;;29.80;;
53650;SDS011;39552;45.776;15.892;2023-02-12T08:31:58;41.80;;;29.90;;
53650;SDS011;39552;45.776;15.892;2023-02-12T08:34:26;46.80;;;30.02;;
53650;SDS011;39552;45.776;15.892;2023-02-12T08:36:54;45.15;;;29.88;;
53650;SDS011;39552;45.776;15.892;2023-02-12T08:39:21;45.33;;;30.30;;
53650;SDS011;39552;45.776;15.892;2023-02-12T08:41:49;47.33;;;30.23;;
53650;SDS011;39552;45.776;15.892;2023-02-12T08:44:16;41.55;;;27.85;;
53650;SDS011;39552;45.776;15.892;2023-02-12T08:46:43;39.88;;;28.35;;
53650;SDS011;39552;45.776;15.892;2023-02-12T08:49:14;40.75;;;28.25;;
53650;SDS011;39552;45.776;15.892;2023-02-12T08:51:44;48.22;;;28.60;;
53650;SDS011;39552;45.776;15.892;2023-02-12T08:54:12;43.90;;;27.98;;
53650;SDS011;39552;45.776;15.892;2023-02-12T08:56:41;39.60;;;27.00;;
53650;SDS011;39552;45.776;15.892;2023-02-12T08:59:09;37.45;;;27.65;;
53650;SDS011;39552;45.776;15.892;2023-02-12T09:01:36;38.65;;;26.48;;
53650;SDS011;39552;45.776;15.892;2023-02-12T09:04:04;43.28;;;30.73;;
53650;SDS011;39552;45.776;15.892;2023-02-12T09:06:33;41.58;;;28.52;;
53650;SDS011;39552;45.776;15.892;2023-02-12T09:09:01;48.33;;;30.65;;
53650;SDS011;39552;45.776;15.892;2023-02-12T09:11:28;39.88;;;28.45;;
53650;SDS011;39552;45.776;15.892;2023-02-12T09:13:55;39.63;;;29.02;;
53650;SDS011;39552;45.776;15.892;2023-02-12T09:16:22;42.92;;;29.27;;
53650;SDS011;39552;45.776;15.892;2023-02-12T09:18:49;42.03;;;29.33;;
53650;SDS011;39552;45.776;15.892;2023-02-12T09:21:16;41.35;;;29.42;;
53650;SDS011;39552;45.776;15.892;2023-02-12T09:23:45;40.72;;;28.13;;
53650;SDS011;39552;45.776;15.892;2023-02-12T09:26:13;42.57;;;28.63;;
53650;SDS011;39552;45.776;15.892;2023-02-12T09:28:40;39.28;;;28.40;;
53650;SDS011;39552;45.776;15.892;2023-02-12T09:31:08;42.53;;;29.58;;
53650;SDS011;39552;45.776;15.892;2023-02-12T09:33:36;46.13;;;31.17;;
53650;SDS011;39552;45.776;15.892;2023-02-12T09:36:04;43.28;;;30.88;;
53650;SDS011;39552;45.776;15.892;2023-02-12T09:38:33;40.97;;;28.92;;
53650;SDS011;39552;45.776;15.892;2023-02-12T09:41:05;43.20;;;28.13;;
53650;SDS011;39552;45.776;15.892;2023-02-12T09:43:41;39.10;;;26.33;;
53650;SDS011;39552;45.776;15.892;2023-02-12T09:46:14;35.35;;;24.88;;
53650;SDS011;39552;45.776;15.892;2023-02-12T09:48:52;36.22;;;25.45;;
53650;SDS011;39552;45.776;15.892;2023-02-12T09:51:26;37.25;;;25.63;;
53650;SDS011;39552;45.776;15.892;2023-02-12T09:53:59;39.25;;;25.65;;
53650;SDS011;39552;45.776;15.892;2023-02-12T09:56:30;37.00;;;26.23;;
53650;SDS011;39552;45.776;15.892;2023-02-12T09:59:00;31.13;;;24.13;;
53650;SDS011;39552;45.776;15.892;2023-02-12T10:01:29;38.58;;;25.50;;
53650;SDS011;39552;45.776;15.892;2023-02-12T10:03:56;36.17;;;24.90;;
53650;SDS011;39552;45.776;15.892;2023-02-12T10:06:24;36.90;;;24.80;;
53650;SDS011;39552;45.776;15.892;2023-02-12T10:09:06;37.65;;;23.98;;
53650;SDS011;39552;45.776;15.892;2023-02-12T10:11:49;32.80;;;24.05;;
53650;SDS011;39552;45.776;15.892;2023-02-12T10:14:35;36.50;;;24.73;;
53650;SDS011;39552;45.776;15.892;2023-02-12T10:17:18;35.83;;;24.02;;
53650;SDS011;39552;45.776;15.892;2023-02-12T10:20:05;33.78;;;24.75;;
53650;SDS011;39552;45.776;15.892;2023-02-12T10:22:53;31.40;;;23.02;;
53650;SDS011;39552;45.776;15.892;2023-02-12T10:25:29;30.55;;;21.65;;
53650;SDS011;39552;45.776;15.892;2023-02-12T10:28:04;31.58;;;21.25;;
53650;SDS011;39552;45.776;15.892;2023-02-12T10:30:39;28.58;;;20.58;;
53650;SDS011;39552;45.776;15.892;2023-02-12T10:33:11;28.92;;;18.95;;
53650;SDS011;39552;45.776;15.892;2023-02-12T10:35:43;25.85;;;19.45;;
53650;SDS011;39552;45.776;15.892;2023-02-12T10:38:13;28.25;;;18.23;;
53650;SDS011;39552;45.776;15.892;2023-02-12T10:40:45;20.65;;;15.98;;
53650;SDS011;39552;45.776;15.892;2023-02-12T10:43:13;21.42;;;15.45;;
53650;SDS011;39552;45.776;15.892;2023-02-12T10:45:40;21.27;;;15.80;;
53650;SDS011;39552;45.776;15.892;2023-02-12T10:48:09;23.42;;;17.40;;
53650;SDS011;39552;45.776;15.892;2023-02-12T10:50:48;21.75;;;16.52;;
53650;SDS011;39552;45.776;15.892;2023-02-12T10:53:21;24.58;;;16.95;;
53650;SDS011;39552;45.776;15.892;2023-02-12T10:55:49;21.48;;;16.58;;
53650;SDS011;39552;45.776;15.892;2023-02-12T10:58:30;23.45;;;16.85;;
53650;SDS011;39552;45.776;15.892;2023-02-12T11:00:57;20.00;;;16.00;;
53650;SDS011;39552;45.776;15.892;2023-02-12T11:03:30;20.45;;;16.38;;
53650;SDS011;39552;45.776;15.892;2023-02-12T11:06:07;23.05;;;16.75;;
53650;SDS011;39552;45.776;15.892;2023-02-12T11:08:38;19.15;;;15.50;;
53650;SDS011;39552;45.776;15.892;2023-02-12T11:11:07;21.38;;;15.85;;
53650;SDS011;39552;45.776;15.892;2023-02-12T11:13:38;21.25;;;15.30;;
53650;SDS011;39552;45.776;15.892;2023-02-12T11:16:07;18.73;;;15.30;;
53650;SDS011;39552;45.776;15.892;2023-02-12T11:18:34;20.63;;;15.55;;
53650;SDS011;39552;45.776;15.892;2023-02-12T11:21:02;19.30;;;15.40;;
53650;SDS011;39552;45.776;15.892;2023-02-12T11:23:34;20.88;;;16.50;;
53650;SDS011;39552;45.776;15.892;2023-02-12T11:26:03;21.08;;;16.50;;
53650;SDS011;39552;45.776;15.892;2023-02-12T11:28:32;20.80;;;16.27;;
53650;SDS011;39552;45.776;15.892;2023-02-12T11:33:44;22.10;;;17.60;;
53650;SDS011;39552;45.776;15.892;2023-02-12T11:36:13;23.23;;;17.85;;
53650;SDS011;39552;45.776;15.892;2023-02-12T11:38:47;22.30;;;18.23;;
53650;SDS011;39552;45.776;15.892;2023-02-12T11:41:20;21.88;;;17.63;;
53650;SDS011;39552;45.776;15.892;2023-02-12T11:43:49;25.30;;;18.23;;
53650;SDS011;39552;45.776;15.892;2023-02-12T11:46:20;25.08;;;17.90;;
53650;SDS011;39552;45.776;15.892;2023-02-12T11:48:53;19.70;;;15.98;;
53650;SDS011;39552;45.776;15.892;2023-02-12T11:51:23;20.58;;;16.63;;
53650;SDS011;39552;45.776;15.892;2023-02-12T11:53:52;23.15;;;17.10;;
53650;SDS011;39552;45.776;15.892;2023-02-12T11:56:21;22.63;;;15.45;;
53650;SDS011;39552;45.776;15.892;2023-02-12T11:58:48;18.98;;;15.30;;
53650;SDS011;39552;45.776;15.892;2023-02-12T12:01:17;18.73;;;14.52;;
53650;SDS011;39552;45.776;15.892;2023-02-12T12:03:54;22.52;;;15.07;;
53650;SDS011;39552;45.776;15.892;2023-02-12T12:06:30;23.65;;;16.40;;
53650;SDS011;39552;45.776;15.892;2023-02-12T12:09:04;20.77;;;15.35;;
53650;SDS011;39552;45.776;15.892;2023-02-12T12:11:37;20.15;;;15.48;;
53650;SDS011;39552;45.776;15.892;2023-02-12T12:14:14;20.42;;;15.93;;
53650;SDS011;39552;45.776;15.892;2023-02-12T12:16:50;20.35;;;15.75;;
53650;SDS011;39552;45.776;15.892;2023-02-12T12:19:22;19.48;;;14.48;;
53650;SDS011;39552;45.776;15.892;2023-02-12T12:21:56;18.63;;;14.18;;
53650;SDS011;39552;45.776;15.892;2023-02-12T12:24:30;17.55;;;13.98;;
53650;SDS011;39552;45.776;15.892;2023-02-12T12:27:07;17.00;;;14.10;;
53650;SDS011;39552;45.776;15.892;2023-02-12T12:29:41;16.55;;;13.27;;
53650;SDS011;39552;45.776;15.892;2023-02-12T12:32:17;21.67;;;13.48;;
53650;SDS011;39552;45.776;15.892;2023-02-12T12:34:46;16.63;;;13.77;;
53650;SDS011;39552;45.776;15.892;2023-02-12T12:37:18;15.30;;;12.93;;
53650;SDS011;39552;45.776;15.892;2023-02-12T12:43:07;16.30;;;12.63;;
53650;SDS011;39552;45.776;15.892;2023-02-12T12:45:48;19.10;;;12.48;;
53650;SDS011;39552;45.776;15.892;2023-02-12T12:48:35;16.08;;;13.18;;
53650;SDS011;39552;45.776;15.892;2023-02-12T12:51:17;18.17;;;12.60;;
53650;SDS011;39552;45.776;15.892;2023-02-12T12:53:56;15.45;;;12.02;;
53650;SDS011;39552;45.776;15.892;2023-02-12T12:56:41;18.27;;;11.75;;
53650;SDS011;39552;45.776;15.892;2023-02-12T12:59:25;14.88;;;11.98;;
53650;SDS011;39552;45.776;15.892;2023-02-12T13:08:07;12.13;;;10.93;;
53650;SDS011;39552;45.776;15.892;2023-02-12T13:10:44;11.25;;;9.68;;
53650;SDS011;39552;45.776;15.892;2023-02-12T13:13:19;11.18;;;9.50;;
53650;SDS011;39552;45.776;15.892;2023-02-12T13:15:54;10.77;;;9.05;;
53650;SDS011;39552;45.776;15.892;2023-02-12T13:18:32;10.50;;;9.18;;
53650;SDS011;39552;45.776;15.892;2023-02-12T13:21:14;12.32;;;10.07;;
53650;SDS011;39552;45.776;15.892;2023-02-12T13:23:49;12.80;;;9.27;;
53650;SDS011;39552;45.776;15.892;2023-02-12T13:26:24;10.93;;;9.20;;
53650;SDS011;39552;45.776;15.892;2023-02-12T13:28:58;11.98;;;8.88;;
53650;SDS011;39552;45.776;15.892;2023-02-12T13:31:29;12.88;;;8.80;;
53650;SDS011;39552;45.776;15.892;2023-02-12T13:34:01;11.07;;;9.13;;
53650;SDS011;39552;45.776;15.892;2023-02-12T13:36:31;5.82;;;4.70;;
53650;SDS011;39552;45.776;15.892;2023-02-12T13:39:03;4.20;;;3.80;;
53650;SDS011;39552;45.776;15.892;2023-02-12T13:41:35;3.80;;;3.25;;
53650;SDS011;39552;45.776;15.892;2023-02-12T13:44:05;4.85;;;2.85;;
53650;SDS011;39552;45.776;15.892;2023-02-12T13:46:43;3.05;;;2.83;;
53650;SDS011;39552;45.776;15.892;2023-02-12T13:49:19;3.08;;;2.83;;
53650;SDS011;39552;45.776;15.892;2023-02-12T13:51:58;5.25;;;3.15;;
53650;SDS011;39552;45.776;15.892;2023-02-12T13:54:36;4.68;;;2.70;;
53650;SDS011;39552;45.776;15.892;2023-02-12T13:57:12;3.00;;;2.80;;
53650;SDS011;39552;45.776;15.892;2023-02-12T13:59:42;3.60;;;3.30;;
53650;SDS011;39552;45.776;15.892;2023-02-12T14:05:13;7.43;;;2.80;;
53650;SDS011;39552;45.776;15.892;2023-02-12T14:07:44;2.92;;;2.63;;
53650;SDS011;39552;45.776;15.892;2023-02-12T14:10:18;3.30;;;3.00;;
53650;SDS011;39552;45.776;15.892;2023-02-12T14:12:47;3.47;;;3.20;;
53650;SDS011;39552;45.776;15.892;2023-02-12T14:15:22;3.67;;;2.80;;
53650;SDS011;39552;45.776;15.892;2023-02-12T14:17:55;3.28;;;3.00;;
53650;SDS011;39552;45.776;15.892;2023-02-12T14:20:29;3.53;;;3.08;;
53650;SDS011;39552;45.776;15.892;2023-02-12T14:25:57;3.78;;;3.03;;
53650;SDS011;39552;45.776;15.892;2023-02-12T14:28:30;2.97;;;2.72;;
53650;SDS011;39552;45.776;15.892;2023-02-12T14:31:20;3.08;;;2.78;;
53650;SDS011;39552;45.776;15.892;2023-02-12T14:42:55;3.47;;;2.78;;
53650;SDS011;39552;45.776;15.892;2023-02-12T14:45:29;3.17;;;2.88;;
53650;SDS011;39552;45.776;15.892;2023-02-12T14:47:59;7.28;;;3.10;;
53650;SDS011;39552;45.776;15.892;2023-02-12T14:50:30;3.03;;;2.83;;
53650;SDS011;39552;45.776;15.892;2023-02-12T14:53:05;3.35;;;3.00;;
53650;SDS011;39552;45.776;15.892;2023-02-12T14:55:41;4.25;;;3.20;;
53650;SDS011;39552;45.776;15.892;2023-02-12T14:58:16;5.32;;;3.55;;
53650;SDS011;39552;45.776;15.892;2023-02-12T15:00:45;5.57;;;2.90;;
53650;SDS011;39552;45.776;15.892;2023-02-12T15:05:49;4.35;;;2.95;;